Time;durP1;ratioP1;P1;durP2;ratioP2;P2;SDS_P1;SDS_P2;PMS_P1;PMS_P2;Temp;Humidity;BMP_temperature;BMP_pressure;BME280_temperature;BME280_humidity;BME280_pressure;Samples;Min_cycle;Max_cycle;Signal;HPM_P1;HPM_P2
2022/05/18 00:00:12;;;;;;;;;8.00;4.75;;;;;23.74;100.00;101403.78;6287177;22;44924;-89
2022/05/18 00:02:39;;;;;;;;;6.60;5.00;;;;;23.63;100.00;101412.28;6297836;22;46930;-89
2022/05/18 00:05:06;;;;;;;;;9.20;6.20;;;;;23.59;100.00;101400.91;6301631;22;45009;-89
2022/05/18 00:07:33;;;;;;;;;4.00;4.00;;;;;23.56;100.00;101412.13;6269113;22;44685;-90
2022/05/18 00:09:58;;;;;;;;;6.40;5.40;;;;;23.55;100.00;101408.56;6262990;22;44839;-88
2022/05/18 00:12:25;;;;;;;;;5.75;5.75;;;;;23.53;100.00;101415.16;6299566;22;45028;-90
2022/05/18 00:14:51;;;;;;;;;6.20;5.00;;;;;23.52;100.00;101410.75;6272402;22;44650;-87
2022/05/18 00:17:17;;;;;;;;;8.20;8.20;;;;;23.50;100.00;101415.53;6271173;22;44592;-87
2022/05/18 00:19:42;;;;;;;;;6.00;6.00;;;;;23.47;100.00;101416.69;6299183;22;44836;-90
2022/05/18 00:22:08;;;;;;;;;7.00;7.00;;;;;23.46;100.00;101409.59;6267147;22;45167;-88
2022/05/18 00:24:33;;;;;;;;;5.25;5.25;;;;;23.42;100.00;101407.38;6300528;22;44623;-89
2022/05/18 00:27:03;;;;;;;;;5.75;5.75;;;;;23.39;100.00;101415.84;6269168;22;44747;-88
2022/05/18 00:29:28;;;;;;;;;4.00;4.00;;;;;23.35;100.00;101423.47;6260474;22;44932;-90
2022/05/18 00:31:54;;;;;;;;;7.25;7.25;;;;;23.25;100.00;101420.06;6285202;22;45183;-90
2022/05/18 00:34:19;;;;;;;;;6.00;5.00;;;;;23.16;100.00;101421.97;6256666;22;45194;-89
2022/05/18 00:36:44;;;;;;;;;5.75;5.50;;;;;23.06;100.00;101430.25;6256476;22;44721;-90
2022/05/18 00:39:10;;;;;;;;;4.75;4.75;;;;;22.91;100.00;101429.19;6258256;22;44976;-89
2022/05/18 00:41:35;;;;;;;;;7.25;7.25;;;;;22.86;100.00;101446.94;6287727;22;45616;-86
2022/05/18 00:44:02;;;;;;;;;6.00;6.00;;;;;22.89;100.00;101442.06;6288527;22;45112;-88
2022/05/18 00:46:27;;;;;;;;;8.00;6.80;;;;;22.81;100.00;101444.72;6263249;22;44678;-88
2022/05/18 00:48:54;;;;;;;;;5.00;5.00;;;;;22.76;100.00;101442.50;6263914;22;44860;-89
2022/05/18 00:51:34;;;;;;;;;8.80;6.40;;;;;22.65;100.00;101445.53;6289671;22;44990;-88
2022/05/18 00:54:13;;;;;;;;;9.60;7.60;;;;;22.63;100.00;101438.56;6289085;22;44767;-89
2022/05/18 00:56:45;;;;;;;;;8.80;8.00;;;;;22.65;100.00;101450.09;6263973;22;44685;-88
2022/05/18 00:59:17;;;;;;;;;12.20;9.20;;;;;22.57;100.00;101456.31;6260531;22;44917;-88
2022/05/18 01:01:44;;;;;;;;;7.00;5.40;;;;;22.44;100.00;101443.25;6294442;22;45192;-89
2022/05/18 01:28:22;;;;;;;;;8.60;8.60;;;;;22.07;100.00;101463.31;6286907;22;44918;-90
2022/05/18 01:30:48;;;;;;;;;6.20;4.40;;;;;22.02;100.00;101467.53;6254991;22;45276;-89
2022/05/18 01:33:16;;;;;;;;;5.50;5.50;;;;;21.95;100.00;101467.31;6288703;22;44718;-89
2022/05/18 01:35:44;;;;;;;;;3.60;3.60;;;;;21.90;100.00;101469.63;6260665;22;44844;-87
2022/05/18 01:38:14;;;;;;;;;5.40;5.40;;;;;21.83;100.00;101471.28;6257995;22;46647;-87
2022/05/18 01:41:09;;;;;;;;;10.00;9.20;;;;;21.83;100.00;101478.53;6257844;22;44791;-89
2022/05/18 01:43:48;;;;;;;;;8.80;8.80;;;;;21.78;100.00;101489.84;6272581;22;45242;-85
2022/05/18 01:46:16;;;;;;;;;10.00;7.80;;;;;21.63;100.00;101494.13;6285894;22;45170;-86
2022/05/18 01:48:46;;;;;;;;;10.40;10.00;;;;;21.59;100.00;101492.72;6257809;22;45279;-88
2022/05/18 01:51:29;;;;;;;;;7.60;7.60;;;;;21.50;100.00;101491.78;6259684;22;44743;-86
2022/05/18 01:53:54;;;;;;;;;12.00;8.20;;;;;21.51;100.00;101490.78;6260442;22;44753;-90
2022/05/18 01:56:20;;;;;;;;;6.25;6.25;;;;;21.50;100.00;101479.13;6287666;22;45303;-89
2022/05/18 01:58:46;;;;;;;;;11.75;10.00;;;;;21.47;100.00;101486.72;6287547;22;45281;-89
2022/05/18 02:01:12;;;;;;;;;10.80;9.00;;;;;21.45;100.00;101488.72;6288766;22;44613;-90
2022/05/18 02:03:39;;;;;;;;;8.25;8.25;;;;;21.39;100.00;101487.47;6262609;22;44741;-89
2022/05/18 02:06:04;;;;;;;;;14.00;10.00;;;;;21.29;100.00;101500.19;6261495;22;45506;-87
2022/05/18 02:08:30;;;;;;;;;5.25;5.25;;;;;21.18;100.00;101497.72;6264697;22;45281;-88
2022/05/18 02:10:55;;;;;;;;;5.75;4.75;;;;;21.09;100.00;101501.34;6267438;22;44726;-87
2022/05/18 02:13:22;;;;;;;;;11.50;9.50;;;;;20.96;100.00;101499.84;6291071;22;45306;-88
2022/05/18 02:15:49;;;;;;;;;10.20;9.00;;;;;20.89;100.00;101504.16;6294153;22;44851;-89
2022/05/18 02:18:15;;;;;;;;;8.20;7.40;;;;;20.80;100.00;101523.97;6261864;22;45230;-89
2022/05/18 02:20:41;;;;;;;;;11.25;8.00;;;;;20.66;100.00;101524.47;6260707;22;45177;-90
2022/05/18 02:23:07;;;;;;;;;8.80;8.80;;;;;20.66;100.00;101525.31;6294092;22;44620;-87
2022/05/18 02:25:34;;;;;;;;;9.80;8.20;;;;;20.62;100.00;101525.75;6291444;22;44726;-90
2022/05/18 02:28:00;;;;;;;;;7.80;7.80;;;;;20.56;100.00;101531.75;6287089;22;45137;-89
2022/05/18 02:30:26;;;;;;;;;7.50;6.75;;;;;20.52;100.00;101540.16;6254059;22;45160;-90
2022/05/18 02:32:51;;;;;;;;;9.00;7.00;;;;;20.50;100.00;101541.28;6254486;22;44746;-90
2022/05/18 02:35:17;;;;;;;;;8.75;8.00;;;;;20.49;100.00;101535.03;6249300;22;44813;-88
2022/05/18 02:37:42;;;;;;;;;9.50;7.00;;;;;20.47;100.00;101536.19;6277436;22;45337;-89
2022/05/18 02:40:10;;;;;;;;;11.75;8.25;;;;;20.35;100.00;101557.06;6276722;22;44836;-87
2022/05/18 02:42:36;;;;;;;;;9.20;8.00;;;;;20.14;100.00;101567.19;6249758;22;44734;-87
2022/05/18 02:45:01;;;;;;;;;5.00;5.00;;;;;20.10;100.00;101568.47;6253562;22;45449;-87
2022/05/18 02:47:27;;;;;;;;;8.75;8.75;;;;;20.00;100.00;101572.03;6283532;22;45308;-87
2022/05/18 02:49:52;;;;;;;;;7.00;5.50;;;;;19.90;100.00;101575.75;6271728;22;44748;-87
2022/05/18 02:52:18;;;;;;;;;7.25;5.00;;;;;19.85;100.00;101576.16;6293583;22;44615;-90
2022/05/18 02:57:28;;;;;;;;;7.00;6.20;;;;;19.72;100.00;101571.06;6279186;22;45188;-86
2022/05/18 02:59:53;;;;;;;;;6.75;5.00;;;;;19.67;100.00;101578.72;6284201;22;44752;-85
2022/05/18 03:02:19;;;;;;;;;1.00;1.00;;;;;19.70;100.00;101585.69;6257604;22;45197;-86
2022/05/18 03:04:45;;;;;;;;;5.50;5.50;;;;;19.59;100.00;101589.34;6278792;22;45468;-86
2022/05/18 03:07:10;;;;;;;;;4.75;4.75;;;;;19.61;100.00;101581.13;6259018;22;45263;-87
2022/05/18 03:09:36;;;;;;;;;5.25;4.00;;;;;19.56;100.00;101572.59;6289305;22;44760;-86
2022/05/18 03:12:03;;;;;;;;;4.00;2.75;;;;;19.51;100.00;101570.31;6262093;22;44784;-86
2022/05/18 03:14:28;;;;;;;;;4.00;4.00;;;;;19.39;100.00;101574.09;6288691;22;44713;-85
2022/05/18 03:16:54;;;;;;;;;3.75;3.75;;;;;19.29;100.00;101568.69;6293418;22;45271;-86
2022/05/18 03:19:20;;;;;;;;;3.00;3.00;;;;;19.25;100.00;101575.38;6291557;22;44699;-84
2022/05/18 03:24:29;;;;;;;;;1.60;1.60;;;;;19.22;100.00;101573.81;6293913;22;44830;-87
2022/05/18 03:26:55;;;;;;;;;5.75;4.00;;;;;19.18;100.00;101583.16;6281271;22;45187;-86
2022/05/18 03:29:21;;;;;;;;;3.00;3.00;;;;;19.21;100.00;101584.72;6282160;22;44773;-87
2022/05/18 03:31:48;;;;;;;;;1.00;1.00;;;;;19.19;100.00;101579.47;6283190;22;44626;-86
2022/05/18 03:34:14;;;;;;;;;3.00;3.00;;;;;19.14;100.00;101589.78;6281947;22;45200;-87
2022/05/18 03:36:40;;;;;;;;;1.40;1.40;;;;;19.03;100.00;101598.00;6284690;22;45396;-86
2022/05/18 03:39:06;;;;;;;;;1.25;1.25;;;;;19.07;100.00;101610.19;6258165;22;44729;-86
2022/05/18 03:41:34;;;;;;;;;5.80;4.00;;;;;18.96;100.00;101600.38;6284695;22;44853;-86
2022/05/18 03:44:03;;;;;;;;;4.80;4.80;;;;;18.98;100.00;101605.63;6253847;22;45179;-84
2022/05/18 03:46:28;;;;;;;;;1.80;1.80;;;;;18.91;100.00;101608.03;6281304;22;45097;-85
2022/05/18 03:48:54;;;;;;;;;2.50;2.50;;;;;18.89;100.00;101618.06;6256155;22;45187;-86
2022/05/18 03:51:20;;;;;;;;;2.50;2.50;;;;;18.88;100.00;101621.75;6280504;22;44784;-86
2022/05/18 03:53:46;;;;;;;;;3.75;3.75;;;;;18.82;100.00;101619.59;6281236;22;45359;-86
2022/05/18 03:56:13;;;;;;;;;2.20;2.20;;;;;18.77;100.00;101627.22;6285060;22;45533;-86
2022/05/18 03:58:39;;;;;;;;;3.00;3.00;;;;;18.78;100.00;101631.63;6252861;22;44784;-88
2022/05/18 04:01:09;;;;;;;;;7.80;5.00;;;;;18.76;100.00;101628.22;6282141;22;44751;-87
2022/05/18 04:03:38;;;;;;;;;4.20;3.60;;;;;18.69;100.00;101638.66;6285761;22;44754;-87
2022/05/18 04:06:04;;;;;;;;;4.40;4.40;;;;;18.69;100.00;101643.19;6291572;22;44940;-87
2022/05/18 04:08:29;;;;;;;;;5.00;3.25;;;;;18.54;100.00;101641.78;6262967;22;44665;-86
2022/05/18 04:10:55;;;;;;;;;4.50;3.50;;;;;18.52;100.00;101647.31;6264774;22;45130;-87
2022/05/18 04:13:24;;;;;;;;;3.00;1.75;;;;;18.36;100.00;101641.53;6288181;22;44876;-87
2022/05/18 04:15:50;;;;;;;;;1.00;1.00;;;;;18.29;100.00;101646.59;6283249;22;45418;-86
2022/05/18 04:18:17;;;;;;;;;2.40;2.40;;;;;18.30;100.00;101650.13;6254956;22;45389;-87
2022/05/18 04:20:43;;;;;;;;;3.60;2.00;;;;;18.15;100.00;101657.66;6255863;22;44853;-87
2022/05/18 04:23:10;;;;;;;;;2.40;2.00;;;;;18.17;100.00;101651.16;6283329;22;44682;-88
2022/05/18 04:25:36;;;;;;;;;1.60;1.60;;;;;18.20;100.00;101650.91;6256240;22;45428;-87
2022/05/18 04:28:03;;;;;;;;;0.20;0.20;;;;;18.20;100.00;101653.59;6255595;22;45192;-86
2022/05/18 04:30:29;;;;;;;;;1.80;1.00;;;;;18.21;100.00;101660.69;6254460;22;44659;-88
2022/05/18 04:32:54;;;;;;;;;3.00;2.00;;;;;18.20;100.00;101652.75;6286396;22;45157;-87
2022/05/18 04:35:23;;;;;;;;;2.50;1.50;;;;;18.24;100.00;101652.34;6289002;22;45233;-87
2022/05/18 04:37:50;;;;;;;;;2.60;1.00;;;;;18.20;100.00;101658.97;6231259;22;44713;-87
2022/05/18 04:40:16;;;;;;;;;1.00;1.00;;;;;18.31;100.00;101657.22;6288998;22;45167;-88
2022/05/18 04:42:42;;;;;;;;;1.80;1.80;;;;;18.29;100.00;101656.50;6295024;22;44772;-86
2022/05/18 04:45:11;;;;;;;;;3.00;2.00;;;;;18.22;100.00;101656.16;6258335;22;44996;-86
2022/05/18 04:47:37;;;;;;;;;1.20;1.20;;;;;18.28;100.00;101660.19;6282535;22;45304;-88
2022/05/18 04:50:03;;;;;;;;;1.25;1.25;;;;;18.41;100.00;101656.28;6255611;22;45222;-88
2022/05/18 04:52:30;;;;;;;;;1.60;1.00;;;;;18.44;100.00;101655.19;6283253;22;44739;-88
2022/05/18 04:55:24;;;;;;;;;2.00;2.00;;;;;18.45;100.00;101668.50;6251504;22;44990;-86
2022/05/18 04:57:49;;;;;;;;;1.00;1.00;;;;;18.50;100.00;101671.66;6255556;22;45186;-88
2022/05/18 05:00:18;;;;;;;;;2.25;1.00;;;;;18.68;100.00;101681.84;6285693;22;44829;-87
2022/05/18 05:02:57;;;;;;;;;2.00;2.00;;;;;18.81;100.00;101685.22;6285491;22;45011;-89
2022/05/18 05:06:20;;;;;;;;;2.80;2.80;;;;;18.90;100.00;101688.91;6265213;22;45255;-88
2022/05/18 05:08:54;;;;;;;;;3.60;2.20;;;;;18.87;100.00;101689.22;6252894;22;44741;-87
2022/05/18 05:12:10;;;;;;;;;4.00;3.00;;;;;18.84;100.00;101687.63;6234789;22;45159;-85
2022/05/18 05:14:41;;;;;;;;;2.00;1.00;;;;;18.89;100.00;101698.00;6134220;23;45605;-83
2022/05/18 05:17:12;;;;;;;;;4.20;1.80;;;;;18.90;100.00;101700.53;6171532;23;45339;-85
2022/05/18 05:19:39;;;;;;;;;0.60;0.60;;;;;19.02;100.00;101700.47;6170965;23;45283;-86
2022/05/18 05:22:19;;;;;;;;;0.20;0.20;;;;;19.09;100.00;101698.94;6166732;23;44794;-88
2022/05/18 05:24:45;;;;;;;;;3.40;1.00;;;;;19.16;100.00;101697.44;6164127;23;45471;-87
2022/05/18 05:27:10;;;;;;;;;1.25;1.25;;;;;19.26;100.00;101704.56;6157261;23;45273;-88
2022/05/18 05:29:36;;;;;;;;;2.00;2.00;;;;;19.31;100.00;101714.94;6157213;23;44675;-87
2022/05/18 05:32:08;;;;;;;;;3.00;2.00;;;;;19.36;100.00;101701.91;6159330;23;44838;-86
2022/05/18 05:34:34;;;;;;;;;1.60;1.00;;;;;19.41;100.00;101714.97;6184046;23;45200;-86
2022/05/18 05:37:00;;;;;;;;;2.40;1.40;;;;;19.41;100.00;101718.53;6127604;23;45378;-87
2022/05/18 05:39:25;;;;;;;;;1.00;1.00;;;;;19.41;100.00;101726.59;6189213;22;44699;-84
2022/05/18 05:41:51;;;;;;;;;1.00;1.00;;;;;19.43;100.00;101730.00;6274886;22;44721;-84
2022/05/18 05:44:16;;;;;;;;;1.00;1.00;;;;;19.50;100.00;101727.63;6274970;22;45313;-85
2022/05/18 05:46:42;;;;;;;;;2.00;2.00;;;;;19.54;100.00;101736.31;6246095;22;46427;-83
2022/05/18 05:49:07;;;;;;;;;1.75;1.00;;;;;19.67;100.00;101724.31;6274642;22;45324;-83
2022/05/18 05:51:32;;;;;;;;;1.00;1.00;;;;;19.83;100.00;101737.28;6274618;22;45332;-84
2022/05/18 05:53:58;;;;;;;;;2.25;2.25;;;;;19.95;100.00;101741.53;6249066;22;45440;-82
2022/05/18 05:56:23;;;;;;;;;3.00;1.50;;;;;19.93;100.00;101740.84;6281598;22;45031;-84
2022/05/18 05:58:49;;;;;;;;;2.50;2.00;;;;;20.01;100.00;101732.88;6275755;22;44696;-84
2022/05/18 06:01:17;;;;;;;;;1.00;1.00;;;;;20.15;100.00;101745.13;6275168;22;44703;-82
2022/05/18 06:03:43;;;;;;;;;2.80;1.40;;;;;20.19;100.00;101743.00;6274950;22;45608;-83
2022/05/18 06:06:10;;;;;;;;;4.75;2.25;;;;;20.42;100.00;101757.09;6275046;22;45152;-84
2022/05/18 06:08:36;;;;;;;;;1.20;1.20;;;;;20.45;100.00;101737.88;6274334;22;45399;-83
2022/05/18 06:11:03;;;;;;;;;0.40;0.40;;;;;20.23;100.00;101752.53;6280628;22;44770;-83
2022/05/18 06:13:29;;;;;;;;;4.20;1.00;;;;;20.18;100.00;101752.09;6282318;22;44735;-83
2022/05/18 06:15:54;;;;;;;;;0.00;0.00;;;;;20.25;100.00;101756.78;6279473;22;45297;-83
2022/05/18 06:18:20;;;;;;;;;1.00;0.00;;;;;20.16;100.00;101756.75;6280404;22;44742;-84
2022/05/18 06:20:47;;;;;;;;;1.00;1.00;;;;;20.32;100.00;101753.53;6284508;22;45418;-83
2022/05/18 06:23:13;;;;;;;;;1.00;1.00;;;;;20.23;100.00;101749.84;6248341;22;45124;-83
2022/05/18 06:25:39;;;;;;;;;3.40;2.00;;;;;20.37;100.00;101752.13;6250165;22;45159;-84
2022/05/18 06:28:05;;;;;;;;;2.25;2.25;;;;;20.43;100.00;101756.09;6278650;22;45073;-82
2022/05/18 06:30:31;;;;;;;;;1.20;0.00;;;;;20.33;100.00;101749.84;6277563;22;45543;-84
2022/05/18 06:32:56;;;;;;;;;1.50;1.50;;;;;20.36;100.00;101755.81;6277366;22;44862;-84
2022/05/18 06:35:22;;;;;;;;;1.00;1.00;;;;;20.59;100.00;101748.28;6277634;22;45063;-83
2022/05/18 06:37:51;;;;;;;;;1.50;0.75;;;;;20.79;100.00;101749.13;6277140;22;45335;-85
2022/05/18 06:40:17;;;;;;;;;1.20;1.20;;;;;21.09;100.00;101753.50;6277518;22;44625;-84
2022/05/18 06:42:44;;;;;;;;;1.00;1.00;;;;;21.39;100.00;101763.22;6277914;22;45442;-85
2022/05/18 06:45:11;;;;;;;;;1.80;1.80;;;;;21.39;100.00;101754.28;6284215;22;45191;-83
2022/05/18 06:47:36;;;;;;;;;1.80;1.80;;;;;21.45;100.00;101759.06;6275061;22;44854;-82
2022/05/18 06:50:05;;;;;;;;;2.00;1.00;;;;;21.54;100.00;101758.19;6275089;22;45369;-84
2022/05/18 06:52:31;;;;;;;;;1.40;1.00;;;;;21.53;100.00;101753.78;6275048;22;44785;-84
2022/05/18 06:54:56;;;;;;;;;1.00;1.00;;;;;21.32;100.00;101753.16;6274589;22;45451;-84
2022/05/18 06:57:21;;;;;;;;;1.00;1.00;;;;;21.36;100.00;101751.84;6249097;22;44733;-83
2022/05/18 06:59:48;;;;;;;;;1.00;1.00;;;;;21.37;100.00;101746.31;6279874;22;45334;-84
2022/05/18 07:02:13;;;;;;;;;2.80;1.20;;;;;21.64;100.00;101750.88;6248885;22;45310;-83
2022/05/18 07:04:39;;;;;;;;;2.50;1.00;;;;;21.78;100.00;101747.66;6247003;22;46855;-84
2022/05/18 07:07:04;;;;;;;;;3.00;1.75;;;;;22.03;100.00;101742.53;6247767;22;44879;-83
2022/05/18 07:09:30;;;;;;;;;3.25;2.75;;;;;22.22;100.00;101738.88;6254920;22;45004;-83
2022/05/18 07:11:56;;;;;;;;;1.00;1.00;;;;;22.20;100.00;101757.13;6249416;22;44897;-82
2022/05/18 07:14:26;;;;;;;;;3.00;1.50;;;;;22.17;100.00;101744.75;6279722;22;45098;-84
2022/05/18 07:16:52;;;;;;;;;2.40;1.60;;;;;22.23;100.00;101735.16;6253742;22;44755;-84
2022/05/18 07:19:19;;;;;;;;;1.00;1.00;;;;;22.20;100.00;101747.16;6278175;22;44688;-84
2022/05/18 07:21:45;;;;;;;;;2.00;1.60;;;;;22.07;100.00;101752.06;6277785;22;44791;-85
2022/05/18 07:24:11;;;;;;;;;2.00;2.00;;;;;22.15;100.00;101749.47;6278172;22;45475;-86
2022/05/18 07:26:38;;;;;;;;;1.50;1.50;;;;;22.28;100.00;101740.94;6248232;22;44685;-86
2022/05/18 07:29:06;;;;;;;;;3.20;1.40;;;;;22.30;100.00;101742.50;6248844;22;45380;-87
2022/05/18 07:34:23;;;;;;;;;5.40;4.40;;;;;22.67;100.00;101751.44;6284265;22;45310;-84
2022/05/18 07:36:54;;;;;;;;;3.40;3.20;;;;;22.83;100.00;101747.03;6251511;22;44765;-86
2022/05/18 07:39:20;;;;;;;;;1.00;1.00;;;;;22.77;100.00;101742.25;6275130;22;44867;-78
2022/05/18 07:41:46;;;;;;;;;6.00;6.00;;;;;22.59;100.00;101754.97;6274638;22;45482;-79
2022/05/18 07:44:12;;;;;;;;;5.20;5.00;;;;;22.49;100.00;101746.06;6274655;22;45297;-79
2022/05/18 07:46:38;;;;;;;;;4.00;4.00;;;;;22.72;100.00;101755.38;6243556;22;45385;-81
2022/05/18 07:49:05;;;;;;;;;5.50;5.50;;;;;22.68;100.00;101754.03;6272882;22;44732;-80
2022/05/18 07:51:30;;;;;;;;;6.20;5.00;;;;;22.49;100.00;101749.63;6274804;22;45148;-82
2022/05/18 07:53:56;;;;;;;;;4.00;4.00;;;;;22.52;100.00;101752.00;6247004;22;45340;-85
2022/05/18 07:56:21;;;;;;;;;3.25;3.25;;;;;22.65;100.00;101739.94;6251884;22;44703;-84
2022/05/18 07:58:47;;;;;;;;;2.00;2.00;;;;;22.71;100.00;101736.59;6284708;22;44642;-84
2022/05/18 08:01:12;;;;;;;;;4.75;4.50;;;;;22.78;100.00;101743.94;6282034;22;45097;-83
2022/05/18 08:03:38;;;;;;;;;3.00;3.00;;;;;22.71;100.00;101753.69;6253746;22;45180;-84
2022/05/18 08:06:04;;;;;;;;;15.50;6.75;;;;;22.90;100.00;101746.41;6285650;22;44568;-86
2022/05/18 08:08:29;;;;;;;;;2.40;2.20;;;;;22.72;100.00;101747.25;6258078;22;44604;-84
2022/05/18 08:16:26;;;;;;;;;8.60;3.60;;;;;22.71;100.00;101736.59;6284032;22;45354;-86
2022/05/18 08:18:51;;;;;;;;;2.00;2.00;;;;;22.94;100.00;101736.97;6286006;22;44732;-86
2022/05/18 08:21:18;;;;;;;;;5.00;5.00;;;;;23.16;100.00;101735.56;6259439;22;45266;-85
2022/05/18 08:23:43;;;;;;;;;5.20;5.20;;;;;23.32;100.00;101731.09;6285508;22;45023;-85
2022/05/18 08:26:09;;;;;;;;;4.00;4.00;;;;;23.50;100.00;101738.31;6257129;22;44672;-85
2022/05/18 08:28:35;;;;;;;;;5.60;5.40;;;;;23.54;100.00;101742.38;6253665;22;44684;-85
2022/05/18 08:31:01;;;;;;;;;5.75;5.75;;;;;23.64;100.00;101742.28;6221581;22;44876;-86
2022/05/18 08:33:28;;;;;;;;;2.20;2.20;;;;;23.66;100.00;101740.25;6224995;22;46548;-84
2022/05/18 08:35:54;;;;;;;;;5.20;3.00;;;;;23.55;100.00;101738.66;6220221;22;44800;-86
2022/05/18 08:38:20;;;;;;;;;1.50;1.50;;;;;23.62;100.00;101730.72;6246220;22;44857;-88
2022/05/18 08:40:53;;;;;;;;;5.75;2.00;;;;;23.97;100.00;101724.22;6245964;22;45538;-86
2022/05/18 08:43:29;;;;;;;;;6.20;4.20;;;;;24.22;100.00;101725.13;6246128;22;46215;-86
2022/05/18 08:46:24;;;;;;;;;5.00;5.00;;;;;24.23;100.00;101726.84;6246735;22;44686;-85
2022/05/18 08:49:19;;;;;;;;;7.40;7.40;;;;;24.27;100.00;101733.59;6251162;22;44663;-86
2022/05/18 08:52:07;;;;;;;;;3.40;2.40;;;;;24.18;100.00;101734.63;6218017;22;44860;-84
2022/05/18 08:54:53;;;;;;;;;2.00;2.00;;;;;24.14;100.00;101717.81;6244861;22;45262;-83
2022/05/18 08:57:21;;;;;;;;;4.00;4.00;;;;;24.04;100.00;101734.28;6217709;22;44843;-84
2022/05/18 08:59:54;;;;;;;;;5.20;5.20;;;;;24.17;100.00;101720.19;6245095;22;44749;-86
2022/05/18 09:02:25;;;;;;;;;7.00;4.00;;;;;24.46;100.00;101722.44;6218480;22;44807;-87
2022/05/18 09:05:10;;;;;;;;;4.40;3.00;;;;;24.79;100.00;101719.72;6249635;22;44929;-88
2022/05/18 09:08:04;;;;;;;;;2.60;2.00;;;;;25.04;100.00;101709.63;6221780;22;44780;-84
2022/05/18 09:10:43;;;;;;;;;3.00;3.00;;;;;25.13;100.00;101711.34;6254450;22;44685;-86
2022/05/18 09:13:08;;;;;;;;;4.60;3.20;;;;;25.22;100.00;101704.03;6221235;22;44850;-86
2022/05/18 09:15:42;;;;;;;;;3.75;3.75;;;;;25.25;100.00;101715.41;6252467;22;45059;-86
2022/05/18 09:18:22;;;;;;;;;3.60;3.00;;;;;25.25;100.00;101711.84;6225880;22;45352;-87
2022/05/18 09:20:54;;;;;;;;;4.60;4.60;;;;;25.35;100.00;101705.16;6224624;22;44753;-86
2022/05/18 09:23:41;;;;;;;;;4.20;4.20;;;;;25.24;100.00;101713.72;6224924;22;45611;-85
2022/05/18 09:26:22;;;;;;;;;5.20;4.20;;;;;25.29;100.00;101702.31;6221634;22;45531;-86
2022/05/18 09:29:22;;;;;;;;;4.00;4.00;;;;;25.44;100.00;101703.25;6255220;22;44750;-86
2022/05/18 09:32:26;;;;;;;;;1.20;1.20;;;;;25.49;100.00;101700.88;6283828;22;44705;-85
2022/05/18 09:35:07;;;;;;;;;5.00;2.80;;;;;25.23;100.00;101692.97;6283292;22;45248;-85
2022/05/18 09:37:47;;;;;;;;;5.40;4.00;;;;;25.36;100.00;101695.97;6283748;22;46919;-86
2022/05/18 09:40:19;;;;;;;;;3.60;3.00;;;;;25.42;100.00;101694.41;6283816;22;44679;-88
2022/05/18 09:43:07;;;;;;;;;4.60;3.00;;;;;25.37;100.00;101699.53;6310480;22;44708;-86
2022/05/18 09:45:37;;;;;;;;;3.80;2.60;;;;;25.34;100.00;101695.31;6308627;22;45135;-86
2022/05/18 09:48:22;;;;;;;;;5.00;3.80;;;;;25.50;100.00;101693.53;6305906;22;45242;-84
2022/05/18 09:50:49;;;;;;;;;3.00;3.00;;;;;25.51;100.00;101689.78;6307769;22;44750;-85
2022/05/18 09:53:16;;;;;;;;;6.00;4.40;;;;;25.37;100.00;101694.09;6278683;22;44806;-87
2022/05/18 09:55:45;;;;;;;;;4.20;3.00;;;;;25.44;100.00;101694.25;6307586;22;45381;-86
2022/05/18 09:58:42;;;;;;;;;5.00;2.80;;;;;25.39;100.00;101686.63;6314614;22;45349;-87
2022/05/18 10:10:14;;;;;;;;;9.60;7.80;;;;;25.75;100.00;101675.19;6326555;22;44909;-90
2022/05/18 10:12:43;;;;;;;;;6.00;5.80;;;;;25.80;100.00;101681.00;6318703;22;44761;-89
2022/05/18 10:15:37;;;;;;;;;4.80;3.80;;;;;25.71;100.00;101665.69;6323329;22;44690;-89
2022/05/18 10:18:12;;;;;;;;;2.80;2.80;;;;;25.78;100.00;101667.56;6295330;22;44745;-88
2022/05/18 10:20:40;;;;;;;;;3.20;3.20;;;;;25.82;100.00;101660.75;6291875;22;45444;-89
2022/05/18 10:23:29;;;;;;;;;3.80;3.20;;;;;25.83;100.00;101667.03;6296571;22;44769;-90
2022/05/18 10:25:55;;;;;;;;;2.60;2.60;;;;;25.83;100.00;101648.81;6291214;22;44737;-89
2022/05/18 10:28:27;;;;;;;;;5.60;5.60;;;;;25.83;100.00;101647.97;6313797;22;45099;-87
2022/05/18 10:31:03;;;;;;;;;3.20;2.00;;;;;25.89;100.00;101652.69;6307766;22;45681;-85
2022/05/18 10:33:36;;;;;;;;;5.00;3.00;;;;;25.99;100.00;101641.56;6309028;22;44747;-85
2022/05/18 10:36:14;;;;;;;;;6.60;4.80;;;;;26.07;100.00;101644.22;6283536;22;45336;-86
2022/05/18 10:38:52;;;;;;;;;3.20;3.00;;;;;26.18;100.00;101634.75;6292430;22;44729;-84
2022/05/18 10:41:21;;;;;;;;;3.80;2.60;;;;;26.48;100.00;101631.09;6313690;22;46072;-84
2022/05/18 10:44:33;;;;;;;;;3.00;3.00;;;;;26.61;100.00;101628.59;6310428;22;44740;-84
2022/05/18 10:47:17;;;;;;;;;1.80;1.00;;;;;26.80;100.00;101621.75;6168039;23;44668;-83
2022/05/18 10:49:44;;;;;;;;;2.60;2.60;;;;;26.92;100.00;101617.50;6183590;23;44898;-86
2022/05/18 10:52:17;;;;;;;;;3.00;1.80;;;;;27.10;100.00;101622.59;6156797;23;46972;-85
2022/05/18 10:54:57;;;;;;;;;3.00;3.00;;;;;27.21;100.00;101612.22;6184659;23;45200;-87
2022/05/18 10:57:35;;;;;;;;;1.80;1.80;;;;;27.11;100.00;101624.28;6183808;23;45319;-84
2022/05/18 11:00:12;;;;;;;;;3.80;1.20;;;;;27.28;100.00;101619.47;6190807;23;44692;-86
2022/05/18 11:02:43;;;;;;;;;4.40;3.00;;;;;27.37;100.00;101621.06;6183658;23;45018;-86
2022/05/18 11:05:19;;;;;;;;;2.00;2.00;;;;;27.57;99.56;101613.09;6190854;23;44761;-84
2022/05/18 11:07:45;;;;;;;;;8.60;6.40;;;;;27.53;95.51;101606.31;6188457;23;44680;-87
2022/05/18 11:10:12;;;;;;;;;2.60;2.60;;;;;27.55;95.61;101609.69;6166123;23;44889;-87
2022/05/18 11:13:01;;;;;;;;;4.00;4.00;;;;;27.51;90.70;101627.53;6188485;23;45201;-84
2022/05/18 11:15:31;;;;;;;;;13.20;12.00;;;;;27.43;96.14;101619.44;6187533;23;44782;-83
2022/05/18 11:18:05;;;;;;;;;5.20;5.20;;;;;27.38;95.74;101611.00;6275744;22;44673;-84
2022/05/18 11:20:40;;;;;;;;;8.00;6.80;;;;;27.24;96.73;101612.72;6291279;22;44745;-85
2022/05/18 11:23:26;;;;;;;;;2.00;2.00;;;;;27.31;97.07;101616.34;6323136;22;45277;-86
2022/05/18 11:25:58;;;;;;;;;5.60;4.20;;;;;27.25;94.70;101628.03;6298283;22;44764;-84
2022/05/18 11:28:35;;;;;;;;;4.40;3.60;;;;;27.18;98.06;101613.47;6320005;22;44745;-84
2022/05/18 11:31:38;;;;;;;;;4.00;4.00;;;;;27.30;97.36;101606.47;6320288;22;44784;-85
2022/05/18 11:34:28;;;;;;;;;2.00;2.00;;;;;27.45;97.17;101595.50;6278771;22;45327;-87
2022/05/18 11:37:09;;;;;;;;;5.00;3.20;;;;;27.63;98.32;101595.94;6311182;22;45094;-85
2022/05/18 11:39:45;;;;;;;;;4.80;4.40;;;;;27.92;97.91;101595.00;6308201;22;44801;-85
2022/05/18 11:42:44;;;;;;;;;10.60;8.00;;;;;27.92;95.61;101605.06;6308229;22;44716;-85
2022/05/18 11:45:18;;;;;;;;;4.20;4.20;;;;;28.07;91.65;101597.63;6283931;22;46757;-86
2022/05/18 11:48:18;;;;;;;;;3.40;3.40;;;;;28.09;94.17;101579.19;6278760;22;44696;-85
2022/05/18 11:51:14;;;;;;;;;11.00;10.60;;;;;28.37;93.34;101586.56;6312507;22;44768;-85
2022/05/18 11:53:49;;;;;;;;;5.40;5.40;;;;;28.22;93.12;101583.03;6317564;22;44887;-86
2022/05/18 11:56:48;;;;;;;;;27.20;17.40;;;;;28.25;94.29;101588.13;6318050;22;45335;-85
2022/05/18 12:02:14;;;;;;;;;4.40;1.20;;;;;28.43;92.54;101577.53;6313038;22;44674;-84
2022/05/18 12:05:13;;;;;;;;;6.80;5.60;;;;;28.35;88.52;101586.75;6314951;22;44852;-86
2022/05/18 12:08:14;;;;;;;;;6.20;4.80;;;;;28.61;89.80;101574.31;6282547;22;45353;-86
2022/05/18 12:11:15;;;;;;;;;3.40;3.40;;;;;28.98;88.10;101573.06;6312139;22;44753;-84
2022/05/18 12:13:49;;;;;;;;;3.00;3.00;;;;;29.30;86.29;101565.16;6186107;23;45037;-85
2022/05/18 12:17:03;;;;;;;;;3.20;3.20;;;;;29.54;86.08;101567.38;6187718;23;44839;-86
2022/05/18 12:19:59;;;;;;;;;3.20;3.20;;;;;29.79;84.20;101570.38;6080533;23;45119;-85
2022/05/18 12:22:58;;;;;;;;;3.20;3.20;;;;;29.89;78.15;101562.59;6077865;23;44810;-84
2022/05/18 12:25:26;;;;;;;;;7.80;5.80;;;;;30.05;74.09;101564.06;6039839;23;44778;-86